Renner Field-Goodland Municipal Airport
KGLD : now visible

Airfield :











YOU CAN JOIN US ON...

 
LOGIN :

Register | Disclaimer

   EN    FR    IT 

 









Legend :    VFR   Marginal VFR   IFR   Intensive IFR   Very Intensive IFR
Visi :
Ceiling :
>= 8 km
>= 3000ft
5 to 8 km
1000 to 3000 ft
1500m to 5 km
500 to 1000 ft
800 to 1500m
200 to 500 ft
< 800m
< 200 ft
Symbols :   Thunderstorms  Fog  Heavy snow  Heavy precipitations  Wind > 20 kt







- Airport Elevation : 3656 ft


KGLD - Renner Field-Goodland Municipal

CURRENT METAR :
  • 191153Z AUTO 31009KT 10SM CLR 03/M01 A2994 RMK AO2 SLP131 T00281006 10078 20022 53010 TSNO

EXPIRED METARs :
  • 191053Z AUTO 32014KT 10SM CLR 03/M01 A2992 RMK AO2 SLP120 T00281006 TSNO
  • 190953Z AUTO 33017KT 10SM CLR 03/M01 A2992 RMK AO2 SLP114 T00331006 TSNO

TAF KGLD
Valid from the 19 at 12:00 until the 20 at 12:00 UTC


191120Z 1912/2012 33010KT P6SM FEW250
FM192300 10012KT P6SM BKN080
FM200400 10014G22KT P6SM VCSH BKN100
FM200700 11016G24KT P6SM BKN015
FM201000 11015G23KT P6SM OVC005
KZDV FIR / North America



MET'MAP, your aeronautical weather chart ! - Copyright ORBIFLY December 2007 - Disclaimer

ORBIFLY MET'MAP TEAM :

Programming & Development : Alexandra Zaïnal
Concept & Development : Baudouin d'Aumeries
Co-Development & Prog : Marc-Olivier Méhu
Technical & hardware support : Manuel Goepfert

Contact : metmap@orbifly.com




SOURCES & CREDITS :

   NOAA       Earth
Advisory